Terminal Aerodrome Forecast
Issued by NWS

Home | Current Version | Previous Version | Text Only | Print | Product List | Glossary Off
Versions: 1 2 3 4 5 6 7 8 9 10 11 12 13 14 15 16 17 18 19 20 21 22 23 24 25 26 27 28 29 30 31 32 33 34 35 36 37

000
FTUS43 KGRB 261100
TAFRHI
TAF
KRHI 261140Z 2612/2712 19009KT P6SM -SN SCT015 OVC040
      TEMPO 2612/2614 3SM -SN OVC015
     FM261400 16007KT 1 1/2SM -SN SCT009 OVC015
     FM270200 14003KT 3SM -SN BR SCT009 OVC015
     FM270500 VRB03KT 5SM BR OVC006
      TEMPO 2705/2709 5SM -FZDZSN=

USA.gov is the U.S. government's official web portal to all federal, state and local government web resources and services.